sensor_id;sensor_type;location;lat;lon;timestamp;pressure;altitude;pressure_sealevel;temperature;humidity
62402;BME280;48440;51.224;22.506;2022-11-20T00:00:09;99157.91;;;-4.30;66.81
62402;BME280;48440;51.224;22.506;2022-11-20T00:02:35;99165.38;;;-4.25;66.98
62402;BME280;48440;51.224;22.506;2022-11-20T00:05:00;99155.94;;;-4.28;66.79
62402;BME280;48440;51.224;22.506;2022-11-20T00:07:26;99157.59;;;-4.27;66.74
62402;BME280;48440;51.224;22.506;2022-11-20T00:09:51;99158.91;;;-4.31;66.89
62402;BME280;48440;51.224;22.506;2022-11-20T00:12:17;99160.88;;;-4.33;66.92
62402;BME280;48440;51.224;22.506;2022-11-20T00:14:42;99166.50;;;-4.36;67.15
62402;BME280;48440;51.224;22.506;2022-11-20T00:17:07;99163.19;;;-4.38;67.11
62402;BME280;48440;51.224;22.506;2022-11-20T00:19:33;99155.25;;;-4.38;67.56
62402;BME280;48440;51.224;22.506;2022-11-20T00:21:58;99156.22;;;-4.39;67.40
62402;BME280;48440;51.224;22.506;2022-11-20T00:24:24;99159.38;;;-4.35;67.20
62402;BME280;48440;51.224;22.506;2022-11-20T00:26:49;99148.94;;;-4.37;67.32
62402;BME280;48440;51.224;22.506;2022-11-20T00:29:15;99143.31;;;-4.34;66.98
62402;BME280;48440;51.224;22.506;2022-11-20T00:31:40;99152.09;;;-4.33;66.75
62402;BME280;48440;51.224;22.506;2022-11-20T00:34:06;99145.16;;;-4.26;66.38
62402;BME280;48440;51.224;22.506;2022-11-20T00:36:33;99144.81;;;-4.31;66.67
62402;BME280;48440;51.224;22.506;2022-11-20T00:38:59;99137.84;;;-4.40;66.46
62402;BME280;48440;51.224;22.506;2022-11-20T00:41:26;99131.22;;;-4.36;66.67
62402;BME280;48440;51.224;22.506;2022-11-20T00:43:53;99126.94;;;-4.29;66.35
62402;BME280;48440;51.224;22.506;2022-11-20T00:46:21;99130.25;;;-4.35;66.60
62402;BME280;48440;51.224;22.506;2022-11-20T00:48:47;99134.38;;;-4.33;66.78
62402;BME280;48440;51.224;22.506;2022-11-20T00:51:14;99127.09;;;-4.31;67.08
62402;BME280;48440;51.224;22.506;2022-11-20T00:53:41;99127.78;;;-4.29;67.07
62402;BME280;48440;51.224;22.506;2022-11-20T00:56:10;99121.00;;;-4.23;66.86
62402;BME280;48440;51.224;22.506;2022-11-20T00:58:38;99115.53;;;-4.22;67.09
62402;BME280;48440;51.224;22.506;2022-11-20T01:01:05;99115.53;;;-4.22;66.96
62402;BME280;48440;51.224;22.506;2022-11-20T01:03:35;99118.19;;;-4.22;66.86
62402;BME280;48440;51.224;22.506;2022-11-20T01:06:03;99120.66;;;-4.20;66.87
62402;BME280;48440;51.224;22.506;2022-11-20T01:08:30;99121.34;;;-4.18;67.08
62402;BME280;48440;51.224;22.506;2022-11-20T01:11:08;99120.66;;;-4.12;67.22
62402;BME280;48440;51.224;22.506;2022-11-20T01:13:34;99113.53;;;-4.12;66.80
62402;BME280;48440;51.224;22.506;2022-11-20T01:16:12;99115.00;;;-4.09;66.59
62402;BME280;48440;51.224;22.506;2022-11-20T01:18:39;99112.69;;;-4.04;66.76
62402;BME280;48440;51.224;22.506;2022-11-20T01:21:11;99112.38;;;-4.01;66.44
62402;BME280;48440;51.224;22.506;2022-11-20T01:23:39;99105.59;;;-3.95;66.52
62402;BME280;48440;51.224;22.506;2022-11-20T01:26:08;99109.03;;;-3.87;66.72
62402;BME280;48440;51.224;22.506;2022-11-20T01:28:34;99096.44;;;-3.85;66.50
62402;BME280;48440;51.224;22.506;2022-11-20T01:31:00;99091.47;;;-3.80;66.65
62402;BME280;48440;51.224;22.506;2022-11-20T01:33:27;99095.44;;;-3.76;66.77
62402;BME280;48440;51.224;22.506;2022-11-20T01:35:53;99094.13;;;-3.71;66.75
62402;BME280;48440;51.224;22.506;2022-11-20T01:38:19;99078.69;;;-3.68;66.31
62402;BME280;48440;51.224;22.506;2022-11-20T01:40:53;99076.22;;;-3.69;66.51
62402;BME280;48440;51.224;22.506;2022-11-20T01:43:19;99079.53;;;-3.67;66.59
62402;BME280;48440;51.224;22.506;2022-11-20T01:48:36;99073.88;;;-3.64;66.80
62402;BME280;48440;51.224;22.506;2022-11-20T01:51:06;99066.88;;;-3.57;66.66
62402;BME280;48440;51.224;22.506;2022-11-20T01:53:36;99065.22;;;-3.58;66.35
62402;BME280;48440;51.224;22.506;2022-11-20T01:56:05;99062.41;;;-3.57;66.44
62402;BME280;48440;51.224;22.506;2022-11-20T01:58:35;99063.22;;;-3.56;66.71
62402;BME280;48440;51.224;22.506;2022-11-20T02:01:04;99064.72;;;-3.62;67.08
62402;BME280;48440;51.224;22.506;2022-11-20T02:03:30;99069.53;;;-3.57;67.60
62402;BME280;48440;51.224;22.506;2022-11-20T02:06:24;99074.00;;;-3.58;67.87
62402;BME280;48440;51.224;22.506;2022-11-20T02:08:51;99073.19;;;-3.58;67.55
62402;BME280;48440;51.224;22.506;2022-11-20T02:11:17;99068.69;;;-3.58;68.05
62402;BME280;48440;51.224;22.506;2022-11-20T02:13:43;99064.06;;;-3.56;68.32
62402;BME280;48440;51.224;22.506;2022-11-20T02:16:14;99083.28;;;-3.62;68.40
62402;BME280;48440;51.224;22.506;2022-11-20T02:18:41;99085.13;;;-3.62;68.91
62402;BME280;48440;51.224;22.506;2022-11-20T02:26:33;99095.06;;;-3.56;69.06
62402;BME280;48440;51.224;22.506;2022-11-20T02:29:00;99085.28;;;-3.56;69.34
62402;BME280;48440;51.224;22.506;2022-11-20T02:31:26;99083.28;;;-3.54;69.19
62402;BME280;48440;51.224;22.506;2022-11-20T02:33:58;99080.81;;;-3.55;69.81
62402;BME280;48440;51.224;22.506;2022-11-20T02:36:26;99070.34;;;-3.57;69.61
62402;BME280;48440;51.224;22.506;2022-11-20T02:38:53;99066.38;;;-3.53;69.46
62402;BME280;48440;51.224;22.506;2022-11-20T02:41:18;99068.69;;;-3.50;69.21
62402;BME280;48440;51.224;22.506;2022-11-20T02:43:44;99064.69;;;-3.46;69.06
62402;BME280;48440;51.224;22.506;2022-11-20T02:46:09;99067.69;;;-3.49;69.54
62402;BME280;48440;51.224;22.506;2022-11-20T02:48:35;99071.16;;;-3.40;69.14
62402;BME280;48440;51.224;22.506;2022-11-20T02:51:00;99072.31;;;-3.43;69.38
62402;BME280;48440;51.224;22.506;2022-11-20T02:53:26;99066.69;;;-3.39;69.34
62402;BME280;48440;51.224;22.506;2022-11-20T02:55:52;99066.84;;;-3.41;69.07
62402;BME280;48440;51.224;22.506;2022-11-20T02:58:17;99068.34;;;-3.38;69.26
62402;BME280;48440;51.224;22.506;2022-11-20T03:00:43;99054.88;;;-3.37;69.41
62402;BME280;48440;51.224;22.506;2022-11-20T03:03:08;99054.34;;;-3.32;69.40
62402;BME280;48440;51.224;22.506;2022-11-20T03:05:34;99054.84;;;-3.29;69.39
62402;BME280;48440;51.224;22.506;2022-11-20T03:07:59;99061.63;;;-3.26;69.18
62402;BME280;48440;51.224;22.506;2022-11-20T03:10:25;99060.81;;;-3.27;69.32
62402;BME280;48440;51.224;22.506;2022-11-20T03:12:54;99056.81;;;-3.23;69.48
62402;BME280;48440;51.224;22.506;2022-11-20T03:15:22;99063.78;;;-3.22;69.29
62402;BME280;48440;51.224;22.506;2022-11-20T03:17:47;99068.44;;;-3.24;69.87
62402;BME280;48440;51.224;22.506;2022-11-20T03:20:13;99065.78;;;-3.24;69.77
62402;BME280;48440;51.224;22.506;2022-11-20T03:22:39;99068.44;;;-3.24;69.88
62402;BME280;48440;51.224;22.506;2022-11-20T03:25:04;99070.91;;;-3.22;70.19
62402;BME280;48440;51.224;22.506;2022-11-20T03:27:34;99070.56;;;-3.19;69.79
62402;BME280;48440;51.224;22.506;2022-11-20T03:30:00;99074.22;;;-3.20;69.94
62402;BME280;48440;51.224;22.506;2022-11-20T03:32:26;99059.13;;;-3.20;69.83
62402;BME280;48440;51.224;22.506;2022-11-20T03:34:51;99059.44;;;-3.15;70.03
62402;BME280;48440;51.224;22.506;2022-11-20T03:37:17;99045.50;;;-3.17;70.16
62402;BME280;48440;51.224;22.506;2022-11-20T03:39:42;99041.19;;;-3.18;70.02
62402;BME280;48440;51.224;22.506;2022-11-20T03:42:08;99041.53;;;-3.21;70.55
62402;BME280;48440;51.224;22.506;2022-11-20T03:44:53;99037.06;;;-3.20;70.21
62402;BME280;48440;51.224;22.506;2022-11-20T03:47:19;99040.38;;;-3.18;70.24
62402;BME280;48440;51.224;22.506;2022-11-20T03:49:44;99043.69;;;-3.16;70.59
62402;BME280;48440;51.224;22.506;2022-11-20T03:52:10;99036.38;;;-3.14;70.56
62402;BME280;48440;51.224;22.506;2022-11-20T03:54:35;99032.72;;;-3.13;70.05
62402;BME280;48440;51.224;22.506;2022-11-20T03:57:01;99037.19;;;-3.14;70.32
62402;BME280;48440;51.224;22.506;2022-11-20T03:59:26;99035.72;;;-3.16;70.50
62402;BME280;48440;51.224;22.506;2022-11-20T04:01:52;99036.22;;;-3.13;70.34
62402;BME280;48440;51.224;22.506;2022-11-20T04:04:17;99034.06;;;-3.17;70.82
62402;BME280;48440;51.224;22.506;2022-11-20T04:06:42;99033.25;;;-3.18;70.61
62402;BME280;48440;51.224;22.506;2022-11-20T04:09:08;99033.72;;;-3.14;71.04
62402;BME280;48440;51.224;22.506;2022-11-20T04:11:36;99028.59;;;-3.16;71.25
62402;BME280;48440;51.224;22.506;2022-11-20T04:14:04;99032.91;;;-3.15;71.34
62402;BME280;48440;51.224;22.506;2022-11-20T04:16:33;99022.63;;;-3.18;71.10
62402;BME280;48440;51.224;22.506;2022-11-20T04:19:00;99025.09;;;-3.16;71.08
62402;BME280;48440;51.224;22.506;2022-11-20T04:21:27;99028.09;;;-3.19;71.44
62402;BME280;48440;51.224;22.506;2022-11-20T04:23:53;99016.47;;;-3.18;71.27
62402;BME280;48440;51.224;22.506;2022-11-20T04:26:20;99020.78;;;-3.17;71.34
62402;BME280;48440;51.224;22.506;2022-11-20T04:28:45;99007.19;;;-3.14;71.26
62402;BME280;48440;51.224;22.506;2022-11-20T04:31:18;99011.28;;;-3.12;71.37
62402;BME280;48440;51.224;22.506;2022-11-20T04:33:44;99009.28;;;-3.10;71.37
62402;BME280;48440;51.224;22.506;2022-11-20T04:36:13;99009.09;;;-3.08;71.30
62402;BME280;48440;51.224;22.506;2022-11-20T04:38:40;98996.50;;;-3.06;70.98
62402;BME280;48440;51.224;22.506;2022-11-20T04:41:07;98995.66;;;-3.07;71.34
62402;BME280;48440;51.224;22.506;2022-11-20T04:43:34;98987.53;;;-3.05;71.35
62402;BME280;48440;51.224;22.506;2022-11-20T04:46:00;98988.19;;;-3.03;71.44
62402;BME280;48440;51.224;22.506;2022-11-20T04:48:27;98996.97;;;-3.02;71.62
62402;BME280;48440;51.224;22.506;2022-11-20T04:50:53;98999.97;;;-3.05;71.71
62402;BME280;48440;51.224;22.506;2022-11-20T04:53:20;99000.66;;;-3.12;71.84
62402;BME280;48440;51.224;22.506;2022-11-20T04:55:46;98992.06;;;-3.14;71.46
62402;BME280;48440;51.224;22.506;2022-11-20T04:58:12;98993.06;;;-3.15;71.70
62402;BME280;48440;51.224;22.506;2022-11-20T05:00:39;98995.72;;;-3.15;71.81
62402;BME280;48440;51.224;22.506;2022-11-20T05:03:04;98992.41;;;-3.17;71.80
62402;BME280;48440;51.224;22.506;2022-11-20T05:05:30;98992.09;;;-3.22;71.91
62402;BME280;48440;51.224;22.506;2022-11-20T05:07:59;98985.63;;;-3.19;72.04
62402;BME280;48440;51.224;22.506;2022-11-20T05:10:25;98986.63;;;-3.20;72.06
62402;BME280;48440;51.224;22.506;2022-11-20T05:12:51;98984.50;;;-3.25;71.97
62402;BME280;48440;51.224;22.506;2022-11-20T05:15:17;98985.81;;;-3.21;72.41
62402;BME280;48440;51.224;22.506;2022-11-20T05:17:53;98982.97;;;-3.19;72.24
62402;BME280;48440;51.224;22.506;2022-11-20T05:20:18;98987.97;;;-3.24;71.80
62402;BME280;48440;51.224;22.506;2022-11-20T05:22:44;98977.84;;;-3.21;71.96
62402;BME280;48440;51.224;22.506;2022-11-20T05:25:11;98975.72;;;-3.25;71.83
62402;BME280;48440;51.224;22.506;2022-11-20T05:27:37;98983.00;;;-3.27;72.34
62402;BME280;48440;51.224;22.506;2022-11-20T05:30:06;98985.00;;;-3.29;72.59
62402;BME280;48440;51.224;22.506;2022-11-20T05:32:32;98978.06;;;-3.30;72.25
62402;BME280;48440;51.224;22.506;2022-11-20T05:34:57;98972.25;;;-3.34;72.15
62402;BME280;48440;51.224;22.506;2022-11-20T05:37:23;98969.94;;;-3.37;72.51
62402;BME280;48440;51.224;22.506;2022-11-20T05:39:48;98969.94;;;-3.37;72.25
62402;BME280;48440;51.224;22.506;2022-11-20T05:42:14;98971.16;;;-3.39;72.44
62402;BME280;48440;51.224;22.506;2022-11-20T05:45:02;98971.50;;;-3.43;72.39
62402;BME280;48440;51.224;22.506;2022-11-20T05:47:32;98972.16;;;-3.40;72.26
62402;BME280;48440;51.224;22.506;2022-11-20T05:49:57;98976.47;;;-3.39;72.54
62402;BME280;48440;51.224;22.506;2022-11-20T05:52:23;98968.66;;;-3.41;72.15
62402;BME280;48440;51.224;22.506;2022-11-20T05:54:49;98973.50;;;-3.45;72.09
62402;BME280;48440;51.224;22.506;2022-11-20T05:57:14;98984.28;;;-3.46;72.27
62402;BME280;48440;51.224;22.506;2022-11-20T05:59:40;98987.59;;;-3.44;71.78
62402;BME280;48440;51.224;22.506;2022-11-20T06:02:06;98987.28;;;-3.49;72.41
62402;BME280;48440;51.224;22.506;2022-11-20T06:04:31;98996.88;;;-3.48;72.14
62402;BME280;48440;51.224;22.506;2022-11-20T06:06:57;99004.84;;;-3.48;72.36
62402;BME280;48440;51.224;22.506;2022-11-20T06:09:22;98997.88;;;-3.49;72.58
62402;BME280;48440;51.224;22.506;2022-11-20T06:11:48;98995.56;;;-3.52;72.11
62402;BME280;48440;51.224;22.506;2022-11-20T06:14:13;99003.53;;;-3.52;72.42
62402;BME280;48440;51.224;22.506;2022-11-20T06:16:38;98998.22;;;-3.52;72.47
62402;BME280;48440;51.224;22.506;2022-11-20T06:19:04;98996.56;;;-3.53;72.84
62402;BME280;48440;51.224;22.506;2022-11-20T06:21:29;99000.72;;;-3.51;72.60
62402;BME280;48440;51.224;22.506;2022-11-20T06:23:55;99009.84;;;-3.53;72.82
62402;BME280;48440;51.224;22.506;2022-11-20T06:26:23;99010.16;;;-3.48;72.63
62402;BME280;48440;51.224;22.506;2022-11-20T06:28:49;98985.63;;;-3.50;72.86
62402;BME280;48440;51.224;22.506;2022-11-20T06:31:17;98983.13;;;-3.52;72.71
62402;BME280;48440;51.224;22.506;2022-11-20T06:33:43;98981.13;;;-3.50;72.42
62402;BME280;48440;51.224;22.506;2022-11-20T06:36:10;98978.31;;;-3.48;72.72
62402;BME280;48440;51.224;22.506;2022-11-20T06:38:38;98978.31;;;-3.48;72.75
62402;BME280;48440;51.224;22.506;2022-11-20T06:41:08;98985.75;;;-3.44;72.50
62402;BME280;48440;51.224;22.506;2022-11-20T06:43:35;98988.41;;;-3.44;72.18
62402;BME280;48440;51.224;22.506;2022-11-20T06:46:01;98994.84;;;-3.38;72.53
62402;BME280;48440;51.224;22.506;2022-11-20T06:48:27;99001.78;;;-3.37;72.72
62402;BME280;48440;51.224;22.506;2022-11-20T06:50:53;99000.09;;;-3.30;72.51
62402;BME280;48440;51.224;22.506;2022-11-20T06:53:18;98991.16;;;-3.29;72.25
62402;BME280;48440;51.224;22.506;2022-11-20T06:55:47;98998.94;;;-3.27;72.11
62402;BME280;48440;51.224;22.506;2022-11-20T06:58:14;98986.16;;;-3.24;72.28
62402;BME280;48440;51.224;22.506;2022-11-20T07:00:40;98993.94;;;-3.22;72.38
62402;BME280;48440;51.224;22.506;2022-11-20T07:03:07;99002.41;;;-3.27;72.64
62402;BME280;48440;51.224;22.506;2022-11-20T07:05:34;98989.63;;;-3.23;72.76
62402;BME280;48440;51.224;22.506;2022-11-20T07:08:00;98982.84;;;-3.26;72.75
62402;BME280;48440;51.224;22.506;2022-11-20T07:10:26;98978.66;;;-3.20;72.72
62402;BME280;48440;51.224;22.506;2022-11-20T07:12:52;98972.00;;;-3.16;72.53
62402;BME280;48440;51.224;22.506;2022-11-20T07:15:19;98970.19;;;-3.16;72.57
62402;BME280;48440;51.224;22.506;2022-11-20T07:17:45;98972.66;;;-3.14;72.37
62402;BME280;48440;51.224;22.506;2022-11-20T07:20:11;98977.00;;;-3.21;73.15
62402;BME280;48440;51.224;22.506;2022-11-20T07:22:37;98972.34;;;-3.19;73.11
62402;BME280;48440;51.224;22.506;2022-11-20T07:25:03;98970.72;;;-3.20;73.83
62402;BME280;48440;51.224;22.506;2022-11-20T07:27:29;98972.06;;;-3.24;74.21
62402;BME280;48440;51.224;22.506;2022-11-20T07:29:55;98977.06;;;-3.29;74.80
62402;BME280;48440;51.224;22.506;2022-11-20T07:32:21;98969.41;;;-3.24;74.54
62402;BME280;48440;51.224;22.506;2022-11-20T07:34:47;98964.44;;;-3.27;75.03
62402;BME280;48440;51.224;22.506;2022-11-20T07:37:13;98960.25;;;-3.22;75.81
62402;BME280;48440;51.224;22.506;2022-11-20T07:39:39;98963.56;;;-3.20;76.28
62402;BME280;48440;51.224;22.506;2022-11-20T07:42:06;98954.44;;;-3.17;76.39
62402;BME280;48440;51.224;22.506;2022-11-20T07:44:31;98955.78;;;-3.21;76.52
62402;BME280;48440;51.224;22.506;2022-11-20T07:46:56;98950.31;;;-3.20;76.99
62402;BME280;48440;51.224;22.506;2022-11-20T07:49:22;98949.66;;;-3.22;76.84
62402;BME280;48440;51.224;22.506;2022-11-20T07:51:50;98956.44;;;-3.19;77.90
62402;BME280;48440;51.224;22.506;2022-11-20T07:54:16;98942.81;;;-3.16;77.71
62402;BME280;48440;51.224;22.506;2022-11-20T07:56:42;98948.28;;;-3.18;77.95
62402;BME280;48440;51.224;22.506;2022-11-20T07:59:07;98946.28;;;-3.16;78.37
62402;BME280;48440;51.224;22.506;2022-11-20T08:01:33;98946.28;;;-3.16;78.51
62402;BME280;48440;51.224;22.506;2022-11-20T08:03:58;98945.41;;;-3.08;78.25
62402;BME280;48440;51.224;22.506;2022-11-20T08:06:24;98945.22;;;-3.07;78.84
62402;BME280;48440;51.224;22.506;2022-11-20T08:08:50;98944.13;;;-3.12;78.70
62402;BME280;48440;51.224;22.506;2022-11-20T08:11:16;98937.44;;;-3.08;78.37
62402;BME280;48440;51.224;22.506;2022-11-20T08:14:00;98943.47;;;-3.14;78.77
62402;BME280;48440;51.224;22.506;2022-11-20T08:16:42;98938.16;;;-3.14;79.45
62402;BME280;48440;51.224;22.506;2022-11-20T08:19:08;98935.13;;;-3.11;79.56
62402;BME280;48440;51.224;22.506;2022-11-20T08:21:33;98937.09;;;-3.05;79.38
62402;BME280;48440;51.224;22.506;2022-11-20T08:23:59;98931.25;;;-3.00;79.65
62402;BME280;48440;51.224;22.506;2022-11-20T08:26:25;98939.72;;;-3.05;80.03
62402;BME280;48440;51.224;22.506;2022-11-20T08:28:58;98927.94;;;-3.02;80.07
62402;BME280;48440;51.224;22.506;2022-11-20T08:31:25;98935.03;;;-2.95;80.31
62402;BME280;48440;51.224;22.506;2022-11-20T08:33:52;98928.84;;;-2.87;79.99
62402;BME280;48440;51.224;22.506;2022-11-20T08:36:18;98928.47;;;-2.84;79.55
62402;BME280;48440;51.224;22.506;2022-11-20T08:38:51;98926.28;;;-2.81;79.60
62402;BME280;48440;51.224;22.506;2022-11-20T08:41:18;98925.28;;;-2.80;79.62
62402;BME280;48440;51.224;22.506;2022-11-20T08:43:56;98927.56;;;-2.77;79.56
62402;BME280;48440;51.224;22.506;2022-11-20T08:46:26;98922.44;;;-2.78;79.70
62402;BME280;48440;51.224;22.506;2022-11-20T08:48:52;98911.63;;;-2.77;79.63
62402;BME280;48440;51.224;22.506;2022-11-20T08:51:20;98905.91;;;-2.65;79.40
62402;BME280;48440;51.224;22.506;2022-11-20T08:53:46;98895.63;;;-2.68;79.45
62402;BME280;48440;51.224;22.506;2022-11-20T08:56:14;98895.94;;;-2.63;79.40
62402;BME280;48440;51.224;22.506;2022-11-20T08:58:39;98887.97;;;-2.63;79.73
62402;BME280;48440;51.224;22.506;2022-11-20T09:01:05;98889.31;;;-2.67;79.48
62402;BME280;48440;51.224;22.506;2022-11-20T09:03:31;98885.84;;;-2.68;79.59
62402;BME280;48440;51.224;22.506;2022-11-20T09:06:02;98887.97;;;-2.63;80.03
62402;BME280;48440;51.224;22.506;2022-11-20T09:08:29;98882.06;;;-2.59;80.15
62402;BME280;48440;51.224;22.506;2022-11-20T09:10:56;98886.66;;;-2.53;79.98
62402;BME280;48440;51.224;22.506;2022-11-20T09:13:23;98884.38;;;-2.56;79.72
62402;BME280;48440;51.224;22.506;2022-11-20T09:15:56;98886.56;;;-2.59;79.21
62402;BME280;48440;51.224;22.506;2022-11-20T09:18:22;98887.13;;;-2.64;79.86
62402;BME280;48440;51.224;22.506;2022-11-20T09:20:49;98881.25;;;-2.59;79.09
62402;BME280;48440;51.224;22.506;2022-11-20T09:23:17;98883.72;;;-2.58;78.79
62402;BME280;48440;51.224;22.506;2022-11-20T09:25:43;98892.81;;;-2.67;79.42
62402;BME280;48440;51.224;22.506;2022-11-20T09:28:11;98890.69;;;-2.71;79.41
62402;BME280;48440;51.224;22.506;2022-11-20T09:30:50;98896.81;;;-2.71;79.77
62402;BME280;48440;51.224;22.506;2022-11-20T09:33:17;98900.13;;;-2.69;80.27
62402;BME280;48440;51.224;22.506;2022-11-20T09:35:44;98886.66;;;-2.67;80.27
62402;BME280;48440;51.224;22.506;2022-11-20T09:38:38;98891.63;;;-2.64;80.30
62402;BME280;48440;51.224;22.506;2022-11-20T09:41:26;98883.66;;;-2.64;80.24
62402;BME280;48440;51.224;22.506;2022-11-20T09:46:52;98892.44;;;-2.64;79.84
62402;BME280;48440;51.224;22.506;2022-11-20T09:49:29;98885.00;;;-2.68;79.81
62402;BME280;48440;51.224;22.506;2022-11-20T09:52:00;98884.66;;;-2.65;80.05
62402;BME280;48440;51.224;22.506;2022-11-20T09:54:31;98884.94;;;-2.60;79.95
62402;BME280;48440;51.224;22.506;2022-11-20T09:57:01;98880.00;;;-2.63;80.16
62402;BME280;48440;51.224;22.506;2022-11-20T09:59:42;98871.91;;;-2.55;79.82
62402;BME280;48440;51.224;22.506;2022-11-20T10:02:25;98879.88;;;-2.55;79.97
62402;BME280;48440;51.224;22.506;2022-11-20T10:04:59;98881.34;;;-2.53;80.00
62402;BME280;48440;51.224;22.506;2022-11-20T10:07:38;98880.81;;;-2.48;79.74
62402;BME280;48440;51.224;22.506;2022-11-20T10:15:57;98879.81;;;-2.47;80.43
62402;BME280;48440;51.224;22.506;2022-11-20T10:21:15;98874.97;;;-2.44;79.32
62402;BME280;48440;51.224;22.506;2022-11-20T10:29:34;98886.31;;;-2.50;79.34
62402;BME280;48440;51.224;22.506;2022-11-20T10:32:11;98892.63;;;-2.51;79.65
62402;BME280;48440;51.224;22.506;2022-11-20T10:35:01;98887.13;;;-2.49;79.45
62402;BME280;48440;51.224;22.506;2022-11-20T10:37:31;98888.44;;;-2.45;80.08
62402;BME280;48440;51.224;22.506;2022-11-20T10:40:05;98884.78;;;-2.44;79.83
62402;BME280;48440;51.224;22.506;2022-11-20T10:42:50;98874.78;;;-2.42;79.89
62402;BME280;48440;51.224;22.506;2022-11-20T10:50:59;98874.59;;;-2.26;79.85
62402;BME280;48440;51.224;22.506;2022-11-20T10:56:51;98863.31;;;-2.28;79.97
62402;BME280;48440;51.224;22.506;2022-11-20T11:02:57;98852.50;;;-2.26;79.72
62402;BME280;48440;51.224;22.506;2022-11-20T11:05:24;98852.69;;;-2.28;79.92
62402;BME280;48440;51.224;22.506;2022-11-20T11:07:54;98854.34;;;-2.27;79.99
62402;BME280;48440;51.224;22.506;2022-11-20T11:10:32;98850.13;;;-2.21;79.86
62402;BME280;48440;51.224;22.506;2022-11-20T11:13:01;98861.03;;;-2.31;79.96
62402;BME280;48440;51.224;22.506;2022-11-20T11:15:38;98861.50;;;-2.27;80.19
62402;BME280;48440;51.224;22.506;2022-11-20T11:32:43;98857.94;;;-2.20;79.95
62402;BME280;48440;51.224;22.506;2022-11-20T11:38:55;98853.25;;;-2.18;80.07
62402;BME280;48440;51.224;22.506;2022-11-20T11:41:28;98851.75;;;-2.06;79.90
62402;BME280;48440;51.224;22.506;2022-11-20T11:44:00;98852.22;;;-2.02;79.81
62402;BME280;48440;51.224;22.506;2022-11-20T11:46:53;98841.66;;;-1.95;79.61
62402;BME280;48440;51.224;22.506;2022-11-20T11:49:19;98839.94;;;-1.88;79.44
62402;BME280;48440;51.224;22.506;2022-11-20T11:57:55;98826.25;;;-1.85;78.64
62402;BME280;48440;51.224;22.506;2022-11-20T12:00:26;98827.09;;;-1.85;78.28
62402;BME280;48440;51.224;22.506;2022-11-20T12:03:14;98816.63;;;-1.86;78.45
62402;BME280;48440;51.224;22.506;2022-11-20T12:05:43;98816.63;;;-1.86;78.51
62402;BME280;48440;51.224;22.506;2022-11-20T12:11:03;98804.59;;;-1.82;78.22
62402;BME280;48440;51.224;22.506;2022-11-20T12:13:50;98796.63;;;-1.82;77.96
62402;BME280;48440;51.224;22.506;2022-11-20T12:16:19;98797.00;;;-1.85;78.03
62402;BME280;48440;51.224;22.506;2022-11-20T12:18:50;98799.19;;;-1.89;77.62
62402;BME280;48440;51.224;22.506;2022-11-20T12:43:25;98751.88;;;-1.93;77.53
62402;BME280;48440;51.224;22.506;2022-11-20T12:46:22;98748.03;;;-1.91;77.92
62402;BME280;48440;51.224;22.506;2022-11-20T13:08:41;98772.16;;;-1.92;77.17
62402;BME280;48440;51.224;22.506;2022-11-20T13:11:25;98761.31;;;-1.91;77.08
62402;BME280;48440;51.224;22.506;2022-11-20T13:16:59;98771.22;;;-1.85;77.16
62402;BME280;48440;51.224;22.506;2022-11-20T13:19:26;98769.81;;;-1.81;77.05
62402;BME280;48440;51.224;22.506;2022-11-20T13:21:54;98769.38;;;-1.84;76.74
62402;BME280;48440;51.224;22.506;2022-11-20T13:24:21;98760.75;;;-1.86;76.73
62402;BME280;48440;51.224;22.506;2022-11-20T13:40:23;98772.41;;;-1.87;76.80
62402;BME280;48440;51.224;22.506;2022-11-20T13:45:30;98772.78;;;-1.90;75.92
62402;BME280;48440;51.224;22.506;2022-11-20T13:47:59;98772.53;;;-1.95;75.65
62402;BME280;48440;51.224;22.506;2022-11-20T13:50:40;98766.75;;;-1.99;76.62
62402;BME280;48440;51.224;22.506;2022-11-20T13:56:01;98772.06;;;-1.99;76.10
62402;BME280;48440;51.224;22.506;2022-11-20T13:58:59;98772.91;;;-1.98;75.96
62402;BME280;48440;51.224;22.506;2022-11-20T14:01:33;98776.19;;;-1.96;76.36
62402;BME280;48440;51.224;22.506;2022-11-20T14:04:06;98770.50;;;-1.93;75.92
62402;BME280;48440;51.224;22.506;2022-11-20T14:06:45;98769.97;;;-2.03;75.83
62402;BME280;48440;51.224;22.506;2022-11-20T14:09:13;98768.13;;;-2.03;76.24
62402;BME280;48440;51.224;22.506;2022-11-20T14:11:49;98763.63;;;-2.02;76.01
62402;BME280;48440;51.224;22.506;2022-11-20T14:14:26;98773.81;;;-2.06;75.85
62402;BME280;48440;51.224;22.506;2022-11-20T14:17:07;98759.69;;;-2.07;75.87
62402;BME280;48440;51.224;22.506;2022-11-20T14:19:34;98750.03;;;-2.14;76.10
62402;BME280;48440;51.224;22.506;2022-11-20T14:22:10;98754.97;;;-2.11;75.46
62402;BME280;48440;51.224;22.506;2022-11-20T14:31:23;98731.97;;;-2.19;76.09
62402;BME280;48440;51.224;22.506;2022-11-20T14:33:52;98733.53;;;-2.24;75.88
62402;BME280;48440;51.224;22.506;2022-11-20T14:36:23;98731.88;;;-2.25;75.50
62402;BME280;48440;51.224;22.506;2022-11-20T14:38:51;98732.53;;;-2.23;75.60
62402;BME280;48440;51.224;22.506;2022-11-20T14:41:22;98727.19;;;-2.23;75.11
62402;BME280;48440;51.224;22.506;2022-11-20T14:43:53;98725.09;;;-2.28;75.96
62402;BME280;48440;51.224;22.506;2022-11-20T14:46:23;98719.78;;;-2.28;75.56
62402;BME280;48440;51.224;22.506;2022-11-20T14:48:51;98721.44;;;-2.27;75.65
62402;BME280;48440;51.224;22.506;2022-11-20T14:51:33;98718.59;;;-2.25;75.79
62402;BME280;48440;51.224;22.506;2022-11-20T14:54:16;98718.22;;;-2.22;75.90
62402;BME280;48440;51.224;22.506;2022-11-20T14:59:31;98712.91;;;-2.22;75.84
62402;BME280;48440;51.224;22.506;2022-11-20T15:02:11;98705.13;;;-2.24;75.99
62402;BME280;48440;51.224;22.506;2022-11-20T15:04:56;98711.88;;;-2.21;75.86
62402;BME280;48440;51.224;22.506;2022-11-20T15:08:03;98713.91;;;-2.23;76.50
62402;BME280;48440;51.224;22.506;2022-11-20T15:10:29;98712.63;;;-2.27;76.25
62402;BME280;48440;51.224;22.506;2022-11-20T15:13:04;98709.16;;;-2.28;76.19
62402;BME280;48440;51.224;22.506;2022-11-20T15:15:56;98706.31;;;-2.26;76.43
62402;BME280;48440;51.224;22.506;2022-11-20T15:22:12;98714.28;;;-2.26;76.54